Data for 11/16/2007

Time Sea-Level Adjusted Pressure Absolute Pressure Temperature Relative Humidity Dew Point   
(mb) (inHg) (mb) (inHg) (C) (F) (%) (C) (F)
00:05 1013 29.91 843 24.89 8.7 47.7 39 -4.4 24
00:10 1013 29.91 843 24.89 8.7 47.7 39 -4.5 23.9
00:15 1013 29.91 843 24.89 8.8 47.9 39 -4.3 24.2
00:20 1013 29.91 843 24.89 8.7 47.6 40 -4 24.7
00:25 1013 29.91 843 24.89 8.4 47 40 -4.5 24
00:30 1013 29.91 842 24.86 8.3 47 41 -4.2 24.5
00:35 1013 29.91 842 24.86 8.5 47.4 40 -4.1 24.6
00:40 1013 29.91 842 24.86 8.8 47.9 41 -3.8 25.2
00:45 1013 29.91 842 24.86 8.8 47.9 41 -3.7 25.4
00:50 1013 29.91 843 24.89 8.9 48.1 41 -3.6 25.5
00:55 1013 29.91 842 24.86 9.2 48.6 40 -3.6 25.5
01:00 1013 29.91 843 24.89 9.6 49.2 41 -3 26.6
01:05 1013 29.91 843 24.89 9.3 48.8 43 -2.6 27.4
01:10 1013 29.91 843 24.89 9 48.1 45 -2.4 27.7
01:15 1013 29.91 843 24.89 8.6 47.4 46 -2.3 27.8
01:20 1013 29.91 843 24.89 8.3 46.9 47 -2.3 27.8
01:25 1013 29.91 843 24.89 7.8 46 48 -2.5 27.5
01:30 1013 29.91 843 24.89 7.5 45.5 49 -2.6 27.3
01:35 1013 29.91 843 24.89 7.4 45.4 49 -2.7 27.2
01:40 1013 29.91 843 24.89 7.4 45.4 49 -2.6 27.3
01:45 1013 29.91 842 24.86 7.5 45.4 49 -2.5 27.5
01:50 1013 29.91 843 24.89 7.5 45.4 50 -2.4 27.7
01:55 1013 29.91 843 24.89 7.5 45.5 50 -2.2 28
02:00 1013 29.91 843 24.89 7.4 45.3 50 -2.3 27.9
02:05 1014 29.94 843 24.89 7.4 45.3 51 -2.2 28.1
02:10 1014 29.94 843 24.89 7.3 45.2 51 -2.2 28
02:15 1014 29.94 843 24.89 7.3 45.1 52 -2 28.5
02:20 1014 29.94 843 24.89 7.1 44.8 51 -2.3 27.9
02:25 1014 29.94 843 24.89 7.1 44.8 47 -3.4 25.9
02:30 1013 29.91 843 24.89 8 46.3 45 -3.2 26.3
02:35 1013 29.91 843 24.89 8.2 46.7 46 -2.9 26.8
02:40 1013 29.91 843 24.89 8.1 46.5 47 -2.4 27.6
02:45 1013 29.91 843 24.89 8.2 46.7 48 -2.1 28.2
02:50 1013 29.91 843 24.89 8.2 46.8 49 -1.9 28.5
02:55 1013 29.91 843 24.89 8.3 47 48 -1.9 28.6
03:00 1013 29.91 843 24.89 8.4 47.2 47 -2.1 28.3
03:05 1013 29.91 843 24.89 8.5 47.3 48 -1.9 28.5
03:10 1013 29.91 843 24.89 8.4 47.1 48 -1.9 28.7
03:15 1013 29.91 843 24.89 8.4 47.2 48 -2 28.3
03:20 1013 29.91 842 24.86 8.7 47.6 46 -2.3 27.9
03:25 1013 29.91 842 24.86 8.9 47.9 46 -2.2 28
03:30 1013 29.91 842 24.86 8.8 47.9 46 -2.1 28.2
03:35 1013 29.91 842 24.86 8.9 48 45 -2.3 27.8
03:40 1013 29.91 842 24.86 8.9 48 45 -2.4 27.6
03:45 1013 29.91 842 24.86 8.7 47.7 45 -2.6 27.3
03:50 1013 29.91 842 24.86 8.3 47 48 -2.1 28.2
03:55 1013 29.91 842 24.86 8.2 46.8 47 -2.5 27.5
04:00 1013 29.91 842 24.86 8.9 47.9 43 -2.9 26.8
04:05 1013 29.91 842 24.86 9.3 48.7 43 -2.6 27.3
04:10 1013 29.91 842 24.86 9.3 48.7 44 -2.4 27.6
04:15 1013 29.91 842 24.86 9.2 48.6 44 -2.5 27.6
04:20 1013 29.91 842 24.86 9.2 48.6 43 -2.5 27.4
04:25 1013 29.91 842 24.86 9.3 48.7 44 -2.4 27.7
04:30 1013 29.91 842 24.86 9.3 48.8 44 -2.4 27.7
04:35 1013 29.91 842 24.86 9.3 48.7 44 -2.2 28.1
04:40 1013 29.91 842 24.86 8.8 47.8 49 -1.3 29.7
04:45 1013 29.91 842 24.86 7.7 45.9 51 -1.8 28.7
04:50 1013 29.91 842 24.86 7.5 45.5 51 -2.1 28.3
04:55 1013 29.91 842 24.86 7.6 45.7 49 -2.3 27.8
05:00 1013 29.91 842 24.86 7.9 46.1 49 -2.2 28
05:05 1013 29.91 842 24.86 7.9 46.2 49 -2.1 28.1
05:10 1013 29.91 842 24.86 7.9 46.3 48 -2.3 27.9
05:15 1013 29.91 842 24.86 8 46.3 49 -2.2 28.1
05:20 1013 29.91 842 24.86 7.9 46.3 49 -2.2 28
05:25 1013 29.91 842 24.86 7.9 46.2 49 -2 28.4
05:30 1013 29.91 842 24.86 7.8 46 50 -1.9 28.5
05:35 1013 29.91 842 24.86 7.7 45.9 51 -1.7 28.9
05:40 1013 29.91 842 24.86 7.6 45.7 52 -1.7 29
05:45 1013 29.91 842 24.86 7.3 45.1 52 -1.8 28.7
05:50 1013 29.91 842 24.86 7.2 44.9 53 -1.7 28.9
05:55 1013 29.91 843 24.89 7.2 44.9 53 -1.8 28.7
06:00 1013 29.91 843 24.89 7.3 45.2 55 -1.2 29.9
06:05 1013 29.91 843 24.89 7.7 45.9 55 -0.8 30.5
06:10 1013 29.91 842 24.86 8.2 46.7 56 -0.1 31.8
06:15 1013 29.91 842 24.86 8.4 47 56 0 32
06:20 1013 29.91 842 24.86 8.8 47.9 53 -0.1 31.8
06:25 1013 29.91 842 24.86 9.1 48.4 54 0.2 32.4
06:30 1013 29.91 843 24.89 8.3 47 57 0.3 32.6
06:35 1013 29.91 843 24.89 7.8 46 59 0.4 32.6
06:40 1013 29.91 843 24.89 7.6 45.7 62 0.8 33.5
06:45 1014 29.94 843 24.89 7.7 45.8 63 1.1 34
06:50 1014 29.94 843 24.89 7.3 45.1 66 1.4 34.6
06:55 1014 29.94 843 24.89 7.5 45.4 66 1.5 34.7
07:00 1013 29.91 843 24.89 7.4 45.3 67 1.8 35.2
07:05 1013 29.91 842 24.86 7.4 45.3 67 1.7 35
07:10 1013 29.91 842 24.86 7.3 45.1 68 1.8 35.2
07:15 1014 29.94 843 24.89 7.5 45.5 66 1.7 35
07:20 1014 29.94 843 24.89 7.6 45.7 67 1.8 35.3
07:25 1014 29.94 843 24.89 7.6 45.7 67 1.8 35.3
07:30 1014 29.94 843 24.89 7.6 45.7 67 1.9 35.4
07:35 1014 29.94 843 24.89 7.2 44.9 69 1.9 35.4
07:40 1014 29.94 843 24.89 7 44.6 70 1.9 35.5
07:45 1014 29.94 843 24.89 6.8 44.3 70 1.8 35.2
07:50 1014 29.94 843 24.89 6.9 44.4 69 1.6 34.9
07:55 1014 29.94 843 24.89 7.1 44.8 68 1.6 34.8
08:00 1014 29.94 843 24.89 7.4 45.3 67 1.6 35
08:05 1014 29.94 843 24.89 7.4 45.3 65 1.3 34.3
08:10 1014 29.94 843 24.89 7.6 45.6 65 1.5 34.7
08:15 1014 29.94 843 24.89 7.6 45.6 65 1.5 34.7
08:20 1014 29.94 843 24.89 7.5 45.4 65 1.2 34.2
08:25 1014 29.94 843 24.89 7.5 45.5 63 0.9 33.7
08:30 1014 29.94 843 24.89 7.6 45.7 62 0.9 33.6
08:35 1014 29.94 843 24.89 7.8 46 62 0.8 33.5
08:40 1014 29.94 843 24.89 7.8 46 62 1 33.9
08:45 1014 29.94 844 24.92 7.7 45.9 62 1 33.7
08:50 1015 29.97 844 24.92 7.5 45.6 64 1.2 34.1
08:55 1015 29.97 844 24.92 7.4 45.3 65 1.2 34.1
09:00 1015 29.97 844 24.92 7.4 45.3 63 0.8 33.4
09:05 1015 29.97 844 24.92 7.6 45.6 63 1 33.7
09:10 1015 29.97 844 24.92 7.6 45.6 63 1 33.7
09:15 1015 29.97 844 24.92 7.6 45.7 63 1.1 34
09:20 1015 29.97 844 24.92 7.6 45.6 63 1 33.9
09:25 1015 29.97 844 24.92 7.5 45.6 65 1.3 34.3
09:30 1015 29.97 844 24.92 7.3 45.1 65 1.2 34.2
09:35 1015 29.97 844 24.92 7.1 44.8 65 1.1 33.9
09:40 1015 29.97 844 24.92 7.5 45.4 63 0.9 33.5
09:45 1015 29.97 844 24.92 7.8 46.1 62 1.1 33.9
09:50 1015 29.97 844 24.92 7.9 46.3 62 1 33.9
09:55 1015 29.97 844 24.92 7.9 46.2 62 1 33.8
10:00 1015 29.97 844 24.92 8.1 46.6 61 1 33.8
10:05 1015 29.97 844 24.92 8 46.3 62 1.1 34.1
10:10 1015 29.97 844 24.92 7.9 46.2 63 1.2 34.2
10:15 1015 29.97 844 24.92 7.9 46.2 63 1.2 34.2
10:20 1015 29.97 844 24.92 8.1 46.6 61 1.1 34
10:25 1015 29.97 844 24.92 8.3 46.9 60 1.1 34
10:30 1015 29.97 844 24.92 8.6 47.6 58 0.9 33.6
10:35 1015 29.97 844 24.92 8.9 48.1 58 1.1 34
10:40 1015 29.97 844 24.92 9.1 48.3 57 1.1 33.9
10:45 1015 29.97 844 24.92 9.1 48.4 57 1 33.8
10:50 1015 29.97 844 24.92 9.3 48.7 55 0.8 33.5
10:55 1015 29.97 844 24.92 9.6 49.3 55 1.1 34
11:00 1014 29.94 844 24.92 9.7 49.5 54 0.9 33.6
11:05 1014 29.94 844 24.92 10 49.9 53 0.9 33.6
11:10 1015 29.97 844 24.92 10.3 50.5 50 0.4 32.7
11:15 1015 29.97 844 24.92 10.5 50.9 50 0.7 33.2
11:20 1015 29.97 844 24.92 10.6 51.1 51 0.9 33.6
11:25 1014 29.94 844 24.92 10.9 51.5 50 0.9 33.6
11:30 1014 29.94 844 24.92 11 51.8 47 0.1 32.1
11:35 1014 29.94 843 24.89 11.2 52.2 49 0.8 33.5
11:40 1014 29.94 843 24.89 11.2 52.2 46 0.1 32.2
11:45 1014 29.94 843 24.89 11.6 52.8 46 0.4 32.7
11:50 1014 29.94 843 24.89 11.8 53.2 44 -0.1 31.9
11:55 1014 29.94 843 24.89 12 53.6 43 -0.1 31.8
12:00 1014 29.94 843 24.89 12.1 53.9 42 -0.4 31.3
12:05 1014 29.94 843 24.89 12.3 54.1 40 -0.9 30.4
12:10 1014 29.94 843 24.89 12.3 54.1 40 -0.9 30.4
12:15 1014 29.94 843 24.89 12.2 54 40 -0.8 30.6
12:20 1014 29.94 843 24.89 12.4 54.2 40 -0.7 30.7
12:25 1014 29.94 843 24.89 12.4 54.4 39 -1 30.2
12:30 1014 29.94 843 24.89 12.6 54.7 39 -1 30.2
12:35 1014 29.94 843 24.89 12.8 55 37 -1.5 29.3
12:40 1014 29.94 843 24.89 13.2 55.7 35 -1.7 28.9
12:45 1014 29.94 843 24.89 13.2 55.7 36 -1.3 29.6
12:50 1014 29.94 843 24.89 12.7 54.9 36 -1.7 28.9
12:55 1014 29.94 843 24.89 12.6 54.7 39 -1 30.2
13:00 1014 29.94 843 24.89 12.6 54.6 39 -0.9 30.4
13:05 1014 29.94 843 24.89 12.4 54.3 39 -1 30.2
13:10 1014 29.94 843 24.89 12.1 53.8 40 -1 30.3
13:15 1014 29.94 843 24.89 12 53.6 40 -1.2 29.8
13:20 1014 29.94 843 24.89 12 53.6 39 -1.5 29.2
13:25 1014 29.94 843 24.89 12 53.6 41 -0.9 30.3
13:30 1014 29.94 843 24.89 11.9 53.4 40 -1.4 29.5
13:35 1014 29.94 843 24.89 11.9 53.4 38 -1.9 28.7
13:40 1014 29.94 843 24.89 12 53.6 39 -1.6 29.1
13:45 1014 29.94 843 24.89 12 53.6 40 -1.1 30.1
13:50 1014 29.94 843 24.89 11.9 53.5 40 -1.3 29.6
13:55 1014 29.94 843 24.89 11.9 53.3 40 -1.1 30
14:00 1014 29.94 843 24.89 11.9 53.3 41 -1 30.2
14:05 1013 29.91 843 24.89 11.9 53.4 40 -1.2 29.9
14:10 1014 29.94 843 24.89 11.9 53.4 41 -0.9 30.4
14:15 1014 29.94 843 24.89 11.9 53.4 41 -1 30.1
14:20 1014 29.94 843 24.89 11.8 53.2 42 -0.6 30.9
14:25 1014 29.94 843 24.89 11.6 52.9 43 -0.4 31.3
14:30 1014 29.94 843 24.89 11.4 52.5 43 -0.7 30.8
14:35 1014 29.94 843 24.89 11.4 52.4 43 -0.7 30.7
14:40 1014 29.94 843 24.89 11.3 52.4 43 -0.9 30.4
14:45 1014 29.94 843 24.89 11.3 52.3 42 -1.1 30
14:50 1014 29.94 843 24.89 11.3 52.3 42 -1 30.2
14:55 1014 29.94 843 24.89 11.3 52.3 41 -1.4 29.5
15:00 1014 29.94 843 24.89 11.3 52.3 41 -1.5 29.2
15:05 1014 29.94 843 24.89 11.3 52.4 41 -1.5 29.3
15:10 1014 29.94 843 24.89 11.3 52.3 41 -1.4 29.4
15:15 1014 29.94 843 24.89 11.2 52.1 41 -1.6 29.2
15:20 1014 29.94 843 24.89 11.2 52.2 40 -1.7 28.9
15:25 1014 29.94 843 24.89 11.2 52.2 41 -1.5 29.2
15:30 1014 29.94 843 24.89 11.2 52.1 40 -1.8 28.7
15:35 1014 29.94 843 24.89 11.2 52.1 41 -1.7 28.9
15:40 1014 29.94 843 24.89 11.2 52.2 40 -1.9 28.7
15:45 1014 29.94 843 24.89 11.2 52.2 41 -1.5 29.3
15:50 1014 29.94 843 24.89 11.2 52.2 41 -1.5 29.2
15:55 1014 29.94 843 24.89 11.2 52.1 41 -1.7 29
16:00 1014 29.94 843 24.89 11.1 52 42 -1.4 29.4
16:05 1014 29.94 843 24.89 11.1 51.9 42 -1.2 29.8
16:10 1014 29.94 843 24.89 11 51.7 42 -1.3 29.7
16:15 1014 29.94 843 24.89 10.9 51.7 42 -1.3 29.6
16:20 1014 29.94 843 24.89 10.9 51.5 43 -1.1 30
16:25 1014 29.94 843 24.89 10.8 51.4 42 -1.4 29.5
16:30 1014 29.94 843 24.89 10.8 51.4 43 -1.4 29.6
16:35 1014 29.94 843 24.89 10.7 51.3 43 -1.4 29.5
16:40 1014 29.94 843 24.89 10.7 51.3 40 -2.1 28.1
16:45 1014 29.94 843 24.89 10.9 51.5 40 -2 28.4
16:50 1014 29.94 843 24.89 10.8 51.5 41 -2 28.5
16:55 1014 29.94 843 24.89 10.7 51.3 41 -1.9 28.5
17:00 1014 29.94 843 24.89 10.6 51.1 41 -2 28.5
17:05 1014 29.94 843 24.89 10.6 51 40 -2.5 27.6
17:10 1014 29.94 843 24.89 10.6 51.1 40 -2.3 27.8
17:15 1014 29.94 843 24.89 10.6 51 42 -1.6 29
17:20 1014 29.94 843 24.89 10.4 50.7 42 -2 28.4
17:25 1014 29.94 843 24.89 10.3 50.5 44 -1.5 29.3
17:30 1014 29.94 843 24.89 9.9 49.8 44 -1.8 28.7
17:35 1014 29.94 843 24.89 9.7 49.5 41 -2.7 27.1
17:40 1014 29.94 843 24.89 9.9 49.8 39 -3.2 26.2
17:45 1014 29.94 843 24.89 10.4 50.8 38 -3.3 26
17:50 1014 29.94 843 24.89 10.5 50.9 39 -2.7 27.1
17:55 1014 29.94 843 24.89 10.6 51 38 -3 26.6
18:00 1014 29.94 843 24.89 10.8 51.4 37 -3.3 26
18:05 1014 29.94 843 24.89 10.9 51.7 38 -2.8 27
18:10 1014 29.94 843 24.89 11 51.8 37 -3.2 26.2
18:15 1014 29.94 843 24.89 11 51.9 40 -1.9 28.5
18:20 1014 29.94 843 24.89 10.4 50.8 43 -1.6 29.1
18:25 1014 29.94 843 24.89 10 49.9 43 -1.9 28.6
18:30 1014 29.94 843 24.89 9.9 49.8 41 -2.7 27.1
18:35 1014 29.94 843 24.89 10.1 50.2 44 -1.4 29.4
18:40 1014 29.94 844 24.92 9.7 49.5 46 -1.4 29.5
18:45 1014 29.94 844 24.92 9.3 48.7 46 -1.6 29.1
18:50 1014 29.94 844 24.92 9.2 48.5 48 -1.3 29.6
18:55 1014 29.94 844 24.92 9.1 48.4 47 -1.4 29.4
19:00 1014 29.94 844 24.92 9.1 48.3 47 -1.5 29.3
19:05 1014 29.94 844 24.92 9.1 48.3 46 -1.8 28.7
19:10 1014 29.94 844 24.92 9.1 48.4 47 -1.7 29
19:15 1014 29.94 844 24.92 9.2 48.6 47 -1.6 29.2
19:20 1014 29.94 844 24.92 9.1 48.5 45 -2.2 28.1
19:25 1014 29.94 843 24.89 9.3 48.7 46 -1.8 28.8
19:30 1014 29.94 843 24.89 9.1 48.4 47 -1.7 28.9
19:35 1014 29.94 844 24.92 8.9 48 51 -0.6 31
19:40 1014 29.94 844 24.92 8.1 46.5 54 -0.7 30.8
19:45 1014 29.94 844 24.92 7.9 46.1 52 -1.3 29.6
19:50 1014 29.94 844 24.92 8 46.5 52 -1.2 29.9
19:55 1014 29.94 844 24.92 8.3 46.9 51 -1.4 29.5
20:00 1014 29.94 844 24.92 8.4 47.2 50 -1.5 29.4
20:05 1014 29.94 844 24.92 8.7 47.7 48 -1.7 29
20:10 1014 29.94 844 24.92 9 48.2 49 -1.1 29.9
20:15 1014 29.94 844 24.92 9 48.2 46 -1.9 28.5
20:20 1014 29.94 844 24.92 9.3 48.7 46 -1.8 28.8
20:25 1014 29.94 844 24.92 9.4 48.9 48 -1.1 30
20:30 1014 29.94 844 24.92 9.1 48.3 51 -0.5 31.1
20:35 1014 29.94 844 24.92 8.3 46.9 54 -0.5 31
20:40 1014 29.94 844 24.92 7.9 46.1 57 -0.1 31.7
20:45 1014 29.94 843 24.89 7.5 45.5 58 -0.1 31.7
20:50 1014 29.94 843 24.89 6.8 44.3 60 -0.4 31.3
20:55 1014 29.94 843 24.89 6.6 43.9 59 -0.8 30.6
21:00 1014 29.94 843 24.89 6.7 44.1 59 -0.7 30.7
21:05 1014 29.94 843 24.89 6.8 44.2 57 -1.1 30.1
21:10 1014 29.94 843 24.89 7.1 44.7 56 -1 30.2
21:15 1014 29.94 843 24.89 7.3 45.2 55 -1.1 30
21:20 1014 29.94 843 24.89 7.6 45.8 55 -0.9 30.4
21:25 1014 29.94 843 24.89 7.7 45.8 55 -0.8 30.5
21:30 1014 29.94 843 24.89 7.8 46 54 -0.9 30.5
21:35 1014 29.94 843 24.89 7.9 46.3 54 -0.9 30.4
21:40 1014 29.94 843 24.89 8.2 46.7 53 -0.9 30.5
21:45 1014 29.94 844 24.92 8.4 47.1 53 -0.6 31
21:50 1014 29.94 844 24.92 8.3 46.9 54 -0.4 31.3
21:55 1014 29.94 844 24.92 8.2 46.8 54 -0.5 31.1
22:00 1014 29.94 844 24.92 8.3 46.9 54 -0.5 31.1
22:05 1014 29.94 844 24.92 8.2 46.7 55 -0.3 31.4
22:10 1014 29.94 844 24.92 8 46.3 56 -0.3 31.4
22:15 1014 29.94 843 24.89 7.7 45.8 57 -0.2 31.6
22:20 1014 29.94 844 24.92 7.6 45.6 58 -0.2 31.6
22:25 1014 29.94 844 24.92 7.4 45.4 59 -0.1 31.9
22:30 1014 29.94 844 24.92 7.2 45 59 -0.2 31.7
22:35 1014 29.94 844 24.92 6.8 44.3 60 -0.4 31.3
22:40 1014 29.94 844 24.92 7 44.6 58 -0.7 30.8
22:45 1014 29.94 844 24.92 7.3 45.1 58 -0.4 31.3
22:50 1014 29.94 844 24.92 7.2 44.9 58 -0.5 31.1
22:55 1014 29.94 843 24.89 7 44.7 59 -0.4 31.3
23:00 1014 29.94 843 24.89 6.4 43.6 61 -0.5 31.1
23:05 1014 29.94 844 24.92 6.5 43.7 60 -0.8 30.5
23:10 1014 29.94 844 24.92 6.7 44.1 57 -1.1 30
23:15 1014 29.94 844 24.92 7.4 45.3 54 -1.3 29.7
23:20 1014 29.94 844 24.92 7.9 46.3 53 -1.1 30
23:25 1014 29.94 844 24.92 8.1 46.6 54 -0.5 31.1
23:30 1014 29.94 844 24.92 7.6 45.6 57 -0.4 31.2
23:35 1014 29.94 843 24.89 7.3 45.2 58 -0.4 31.3
23:40 1014 29.94 844 24.92 7.2 45 58 -0.5 31.2
23:45 1014 29.94 844 24.92 7.2 45 59 -0.3 31.5
23:50 1014 29.94 844 24.92 7.2 45 58 -0.4 31.3
23:55 1015 29.97 844 24.92 7.3 45.2 58 -0.5 31.1
24:00 1015 29.97 844 24.92 7.6 45.6 57 -0.3 31.5